Warnock, Ohio
Current Conditions -  °F | °C
As of 7:53 AM on Saturday 20 Dec 2014 (Local Time) from KHLG Reporting Station
Overcast Overcast  
Wind Chill: 22°   Ceiling: 2300
Heat Index: 27°   Visibility: 10mi
Dew Point: 20°   Wind: 5mph
Humidity: 75%   Direction: 60°ENE
Pressure: 30.25"   Gusts: NA
Location:  40.02°N, 80.94°W
Report Text: KHLG 201253Z AUTO 06004KT 10SM OVC023 M03/M07 A3025 RMK AO2 SLP262 T10281067
Loading
Personal Weather Stations






























Interactive Weather Map New forecast layout! Learn more

10-Day Weather Forecast

Advertisements
Track Severe Weather on mobile